sensor_id;sensor_type;location;lat;lon;timestamp;P1;durP1;ratioP1;P2;durP2;ratioP2
4174;SDS011;2101;48.290;14.382;2022-12-28T08:57:39;12.30;;;2.40;;
4174;SDS011;2101;48.290;14.382;2022-12-28T09:00:06;12.47;;;2.00;;
4174;SDS011;2101;48.290;14.382;2022-12-28T09:02:32;12.60;;;2.10;;
4174;SDS011;2101;48.290;14.382;2022-12-28T09:04:59;12.80;;;2.27;;
4174;SDS011;2101;48.290;14.382;2022-12-28T09:07:25;12.03;;;2.40;;
4174;SDS011;2101;48.290;14.382;2022-12-28T09:09:51;10.60;;;1.90;;
4174;SDS011;2101;48.290;14.382;2022-12-28T09:12:17;13.77;;;3.30;;
4174;SDS011;2101;48.290;14.382;2022-12-28T09:14:44;11.70;;;2.47;;
4174;SDS011;2101;48.290;14.382;2022-12-28T09:17:10;14.57;;;2.60;;
4174;SDS011;2101;48.290;14.382;2022-12-28T09:19:36;12.10;;;1.90;;
4174;SDS011;2101;48.290;14.382;2022-12-28T09:22:02;11.40;;;1.67;;
4174;SDS011;2101;48.290;14.382;2022-12-28T09:24:28;12.10;;;1.67;;
4174;SDS011;2101;48.290;14.382;2022-12-28T09:26:54;12.30;;;1.63;;
4174;SDS011;2101;48.290;14.382;2022-12-28T09:29:20;12.13;;;2.00;;
4174;SDS011;2101;48.290;14.382;2022-12-28T09:31:46;11.40;;;1.90;;
4174;SDS011;2101;48.290;14.382;2022-12-28T09:34:12;12.27;;;1.93;;
4174;SDS011;2101;48.290;14.382;2022-12-28T09:36:42;13.67;;;2.20;;
4174;SDS011;2101;48.290;14.382;2022-12-28T09:39:09;12.83;;;2.17;;
4174;SDS011;2101;48.290;14.382;2022-12-28T09:41:48;13.87;;;2.43;;
4174;SDS011;2101;48.290;14.382;2022-12-28T09:55:36;11.77;;;1.73;;
4174;SDS011;2101;48.290;14.382;2022-12-28T09:58:03;10.80;;;1.50;;
4174;SDS011;2101;48.290;14.382;2022-12-28T10:00:37;15.90;;;1.60;;
4174;SDS011;2101;48.290;14.382;2022-12-28T10:03:13;11.00;;;1.50;;
4174;SDS011;2101;48.290;14.382;2022-12-28T10:05:40;18.30;;;2.37;;
4174;SDS011;2101;48.290;14.382;2022-12-28T10:08:08;20.70;;;1.93;;
4174;SDS011;2101;48.290;14.382;2022-12-28T10:10:39;14.80;;;1.73;;
4174;SDS011;2101;48.290;14.382;2022-12-28T10:15:41;11.23;;;1.60;;
4174;SDS011;2101;48.290;14.382;2022-12-28T10:18:07;12.73;;;2.00;;
4174;SDS011;2101;48.290;14.382;2022-12-28T10:20:33;12.50;;;1.83;;
4174;SDS011;2101;48.290;14.382;2022-12-28T10:22:59;10.90;;;1.40;;
4174;SDS011;2101;48.290;14.382;2022-12-28T10:25:26;10.33;;;1.73;;
4174;SDS011;2101;48.290;14.382;2022-12-28T10:27:52;14.60;;;1.73;;
4174;SDS011;2101;48.290;14.382;2022-12-28T10:30:23;11.70;;;1.97;;
4174;SDS011;2101;48.290;14.382;2022-12-28T10:37:53;13.40;;;2.13;;
4174;SDS011;2101;48.290;14.382;2022-12-28T10:40:27;11.73;;;2.20;;
4174;SDS011;2101;48.290;14.382;2022-12-28T10:42:55;12.20;;;2.37;;
4174;SDS011;2101;48.290;14.382;2022-12-28T10:45:22;16.47;;;2.30;;
4174;SDS011;2101;48.290;14.382;2022-12-28T10:47:49;14.37;;;1.90;;
4174;SDS011;2101;48.290;14.382;2022-12-28T10:53:01;12.43;;;2.00;;
4174;SDS011;2101;48.290;14.382;2022-12-28T10:55:28;12.97;;;2.53;;
4174;SDS011;2101;48.290;14.382;2022-12-28T10:57:55;10.43;;;1.50;;
4174;SDS011;2101;48.290;14.382;2022-12-28T11:00:21;13.60;;;2.70;;
4174;SDS011;2101;48.290;14.382;2022-12-28T11:02:47;20.93;;;2.70;;
4174;SDS011;2101;48.290;14.382;2022-12-28T11:05:21;24.33;;;2.97;;
4174;SDS011;2101;48.290;14.382;2022-12-28T11:07:48;14.00;;;2.90;;
4174;SDS011;2101;48.290;14.382;2022-12-28T11:12:47;13.27;;;2.30;;
4174;SDS011;2101;48.290;14.382;2022-12-28T11:15:14;21.03;;;2.33;;
4174;SDS011;2101;48.290;14.382;2022-12-28T11:17:40;13.07;;;2.47;;
4174;SDS011;2101;48.290;14.382;2022-12-28T11:20:08;11.57;;;1.90;;
4174;SDS011;2101;48.290;14.382;2022-12-28T11:22:38;12.10;;;2.27;;
4174;SDS011;2101;48.290;14.382;2022-12-28T11:25:06;13.30;;;2.13;;
4174;SDS011;2101;48.290;14.382;2022-12-28T11:27:32;12.20;;;2.17;;
4174;SDS011;2101;48.290;14.382;2022-12-28T11:29:58;13.60;;;2.07;;
4174;SDS011;2101;48.290;14.382;2022-12-28T11:32:26;11.97;;;1.57;;
4174;SDS011;2101;48.290;14.382;2022-12-28T11:34:54;14.50;;;2.03;;
4174;SDS011;2101;48.290;14.382;2022-12-28T11:37:21;12.40;;;1.90;;
4174;SDS011;2101;48.290;14.382;2022-12-28T11:39:48;21.47;;;1.97;;
4174;SDS011;2101;48.290;14.382;2022-12-28T11:44:57;12.10;;;1.60;;
4174;SDS011;2101;48.290;14.382;2022-12-28T11:47:25;13.20;;;2.20;;
4174;SDS011;2101;48.290;14.382;2022-12-28T11:50:38;15.23;;;2.43;;
4174;SDS011;2101;48.290;14.382;2022-12-28T11:52:46;14.53;;;2.07;;
4174;SDS011;2101;48.290;14.382;2022-12-28T11:57:47;10.40;;;1.43;;
4174;SDS011;2101;48.290;14.382;2022-12-28T12:02:55;10.80;;;1.60;;
4174;SDS011;2101;48.290;14.382;2022-12-28T12:10:35;10.53;;;1.50;;
4174;SDS011;2101;48.290;14.382;2022-12-28T12:13:35;11.00;;;1.23;;
4174;SDS011;2101;48.290;14.382;2022-12-28T12:15:49;13.97;;;1.70;;
4174;SDS011;2101;48.290;14.382;2022-12-28T12:18:19;12.43;;;1.70;;
4174;SDS011;2101;48.290;14.382;2022-12-28T12:20:51;12.80;;;1.80;;
4174;SDS011;2101;48.290;14.382;2022-12-28T12:28:47;11.93;;;1.90;;
4174;SDS011;2101;48.290;14.382;2022-12-28T12:31:17;14.50;;;2.00;;
4174;SDS011;2101;48.290;14.382;2022-12-28T12:33:48;12.40;;;1.60;;
4174;SDS011;2101;48.290;14.382;2022-12-28T12:36:23;12.93;;;1.93;;
4174;SDS011;2101;48.290;14.382;2022-12-28T12:56:47;10.80;;;1.40;;
4174;SDS011;2101;48.290;14.382;2022-12-28T13:02:02;11.87;;;1.50;;
4174;SDS011;2101;48.290;14.382;2022-12-28T13:04:33;9.90;;;1.10;;
4174;SDS011;2101;48.290;14.382;2022-12-28T13:07:01;17.07;;;2.00;;
4174;SDS011;2101;48.290;14.382;2022-12-28T13:09:28;10.70;;;1.17;;
4174;SDS011;2101;48.290;14.382;2022-12-28T13:11:55;10.63;;;1.10;;
4174;SDS011;2101;48.290;14.382;2022-12-28T13:14:22;10.63;;;1.23;;
4174;SDS011;2101;48.290;14.382;2022-12-28T13:16:51;13.23;;;1.63;;
4174;SDS011;2101;48.290;14.382;2022-12-28T13:19:19;11.00;;;1.30;;
4174;SDS011;2101;48.290;14.382;2022-12-28T13:21:46;11.20;;;1.10;;
4174;SDS011;2101;48.290;14.382;2022-12-28T13:24:19;13.23;;;1.13;;
4174;SDS011;2101;48.290;14.382;2022-12-28T13:26:45;10.80;;;1.23;;
4174;SDS011;2101;48.290;14.382;2022-12-28T13:29:12;10.93;;;1.20;;
4174;SDS011;2101;48.290;14.382;2022-12-28T13:31:40;10.90;;;1.07;;
4174;SDS011;2101;48.290;14.382;2022-12-28T13:36:51;10.60;;;1.13;;
4174;SDS011;2101;48.290;14.382;2022-12-28T13:39:22;11.80;;;1.23;;
4174;SDS011;2101;48.290;14.382;2022-12-28T13:44:17;11.43;;;1.10;;
4174;SDS011;2101;48.290;14.382;2022-12-28T13:46:47;14.20;;;1.23;;
4174;SDS011;2101;48.290;14.382;2022-12-28T13:49:15;10.07;;;1.00;;
4174;SDS011;2101;48.290;14.382;2022-12-28T13:51:41;12.60;;;0.93;;
4174;SDS011;2101;48.290;14.382;2022-12-28T13:54:08;12.17;;;1.37;;
4174;SDS011;2101;48.290;14.382;2022-12-28T13:56:35;12.03;;;1.10;;
4174;SDS011;2101;48.290;14.382;2022-12-28T13:59:06;13.30;;;1.73;;
4174;SDS011;2101;48.290;14.382;2022-12-28T14:01:34;10.27;;;1.10;;
4174;SDS011;2101;48.290;14.382;2022-12-28T14:04:05;9.70;;;1.00;;
4174;SDS011;2101;48.290;14.382;2022-12-28T14:06:31;11.73;;;1.20;;
4174;SDS011;2101;48.290;14.382;2022-12-28T14:08:58;10.47;;;1.20;;
4174;SDS011;2101;48.290;14.382;2022-12-28T14:11:24;10.90;;;1.10;;
4174;SDS011;2101;48.290;14.382;2022-12-28T14:13:51;15.00;;;1.57;;
4174;SDS011;2101;48.290;14.382;2022-12-28T14:16:17;10.33;;;1.03;;
4174;SDS011;2101;48.290;14.382;2022-12-28T14:18:43;11.37;;;1.23;;
4174;SDS011;2101;48.290;14.382;2022-12-28T14:21:10;12.13;;;1.20;;
4174;SDS011;2101;48.290;14.382;2022-12-28T14:23:37;15.40;;;1.47;;
4174;SDS011;2101;48.290;14.382;2022-12-28T14:26:04;10.60;;;1.40;;
4174;SDS011;2101;48.290;14.382;2022-12-28T14:28:39;13.40;;;1.60;;
4174;SDS011;2101;48.290;14.382;2022-12-28T14:31:06;11.27;;;1.57;;
4174;SDS011;2101;48.290;14.382;2022-12-28T14:33:34;12.97;;;1.43;;
4174;SDS011;2101;48.290;14.382;2022-12-28T14:36:01;11.60;;;1.20;;
4174;SDS011;2101;48.290;14.382;2022-12-28T14:38:34;9.70;;;0.90;;
4174;SDS011;2101;48.290;14.382;2022-12-28T14:41:03;10.73;;;1.47;;
4174;SDS011;2101;48.290;14.382;2022-12-28T14:43:33;11.23;;;1.23;;
4174;SDS011;2101;48.290;14.382;2022-12-28T14:46:16;10.60;;;1.10;;
4174;SDS011;2101;48.290;14.382;2022-12-28T14:48:43;10.80;;;1.40;;
4174;SDS011;2101;48.290;14.382;2022-12-28T14:53:42;12.40;;;1.47;;
4174;SDS011;2101;48.290;14.382;2022-12-28T14:56:08;12.43;;;1.30;;
4174;SDS011;2101;48.290;14.382;2022-12-28T14:58:37;9.60;;;1.10;;
4174;SDS011;2101;48.290;14.382;2022-12-28T15:01:05;11.33;;;1.00;;
4174;SDS011;2101;48.290;14.382;2022-12-28T15:06:16;10.70;;;1.10;;
4174;SDS011;2101;48.290;14.382;2022-12-28T15:08:50;9.77;;;0.93;;
4174;SDS011;2101;48.290;14.382;2022-12-28T15:11:18;9.80;;;0.90;;
4174;SDS011;2101;48.290;14.382;2022-12-28T15:13:44;11.53;;;1.30;;
4174;SDS011;2101;48.290;14.382;2022-12-28T15:16:10;10.50;;;1.10;;
4174;SDS011;2101;48.290;14.382;2022-12-28T15:18:37;9.90;;;0.90;;
4174;SDS011;2101;48.290;14.382;2022-12-28T15:21:12;11.80;;;1.23;;
4174;SDS011;2101;48.290;14.382;2022-12-28T15:23:39;10.80;;;1.23;;
4174;SDS011;2101;48.290;14.382;2022-12-28T15:26:06;10.07;;;1.03;;
4174;SDS011;2101;48.290;14.382;2022-12-28T15:28:32;10.37;;;1.00;;
4174;SDS011;2101;48.290;14.382;2022-12-28T15:30:58;12.10;;;1.10;;
4174;SDS011;2101;48.290;14.382;2022-12-28T15:33:24;10.47;;;1.30;;
4174;SDS011;2101;48.290;14.382;2022-12-28T15:35:50;10.20;;;1.10;;
4174;SDS011;2101;48.290;14.382;2022-12-28T15:38:16;11.40;;;1.10;;
4174;SDS011;2101;48.290;14.382;2022-12-28T15:40:42;10.57;;;1.20;;
4174;SDS011;2101;48.290;14.382;2022-12-28T15:43:08;10.57;;;1.00;;
4174;SDS011;2101;48.290;14.382;2022-12-28T15:45:34;9.93;;;1.03;;
4174;SDS011;2101;48.290;14.382;2022-12-28T15:48:01;10.53;;;1.20;;
4174;SDS011;2101;48.290;14.382;2022-12-28T15:50:27;10.13;;;1.00;;
4174;SDS011;2101;48.290;14.382;2022-12-28T15:52:53;9.60;;;1.00;;
4174;SDS011;2101;48.290;14.382;2022-12-28T15:55:19;16.50;;;1.30;;
4174;SDS011;2101;48.290;14.382;2022-12-28T15:57:45;11.00;;;1.70;;
4174;SDS011;2101;48.290;14.382;2022-12-28T16:00:12;10.63;;;1.43;;
4174;SDS011;2101;48.290;14.382;2022-12-28T16:02:42;11.10;;;1.27;;
4174;SDS011;2101;48.290;14.382;2022-12-28T16:05:09;11.20;;;1.50;;
4174;SDS011;2101;48.290;14.382;2022-12-28T16:07:35;11.83;;;1.70;;
4174;SDS011;2101;48.290;14.382;2022-12-28T16:10:01;10.90;;;1.70;;
4174;SDS011;2101;48.290;14.382;2022-12-28T16:12:27;10.40;;;1.40;;
4174;SDS011;2101;48.290;14.382;2022-12-28T16:14:53;12.00;;;1.60;;
4174;SDS011;2101;48.290;14.382;2022-12-28T16:17:19;13.30;;;1.80;;
4174;SDS011;2101;48.290;14.382;2022-12-28T16:19:45;10.77;;;1.40;;
4174;SDS011;2101;48.290;14.382;2022-12-28T16:22:12;13.50;;;1.40;;
4174;SDS011;2101;48.290;14.382;2022-12-28T16:24:38;14.40;;;1.50;;
4174;SDS011;2101;48.290;14.382;2022-12-28T16:27:04;11.73;;;1.87;;
4174;SDS011;2101;48.290;14.382;2022-12-28T16:29:30;11.67;;;1.47;;
4174;SDS011;2101;48.290;14.382;2022-12-28T16:31:59;9.97;;;1.40;;
4174;SDS011;2101;48.290;14.382;2022-12-28T16:34:26;11.50;;;1.70;;
4174;SDS011;2101;48.290;14.382;2022-12-28T16:36:52;12.90;;;1.80;;
4174;SDS011;2101;48.290;14.382;2022-12-28T16:39:21;14.83;;;1.60;;
4174;SDS011;2101;48.290;14.382;2022-12-28T16:41:47;11.00;;;1.57;;
4174;SDS011;2101;48.290;14.382;2022-12-28T16:44:15;11.47;;;1.90;;
4174;SDS011;2101;48.290;14.382;2022-12-28T16:46:41;13.50;;;1.90;;
4174;SDS011;2101;48.290;14.382;2022-12-28T16:49:07;11.83;;;2.00;;
4174;SDS011;2101;48.290;14.382;2022-12-28T16:51:37;13.30;;;1.70;;
4174;SDS011;2101;48.290;14.382;2022-12-28T16:54:04;12.10;;;1.83;;
4174;SDS011;2101;48.290;14.382;2022-12-28T16:56:30;11.70;;;1.87;;
4174;SDS011;2101;48.290;14.382;2022-12-28T16:58:56;35.73;;;1.70;;
4174;SDS011;2101;48.290;14.382;2022-12-28T17:01:23;10.50;;;1.50;;
4174;SDS011;2101;48.290;14.382;2022-12-28T17:03:50;12.03;;;1.30;;
4174;SDS011;2101;48.290;14.382;2022-12-28T17:06:16;13.23;;;1.93;;
4174;SDS011;2101;48.290;14.382;2022-12-28T17:08:43;15.80;;;1.77;;
4174;SDS011;2101;48.290;14.382;2022-12-28T17:11:09;14.80;;;2.07;;
4174;SDS011;2101;48.290;14.382;2022-12-28T17:13:36;11.27;;;1.50;;
4174;SDS011;2101;48.290;14.382;2022-12-28T17:16:02;11.40;;;1.30;;
4174;SDS011;2101;48.290;14.382;2022-12-28T17:18:29;11.00;;;1.40;;
4174;SDS011;2101;48.290;14.382;2022-12-28T17:20:55;11.53;;;2.00;;
4174;SDS011;2101;48.290;14.382;2022-12-28T17:23:22;13.20;;;2.40;;
4174;SDS011;2101;48.290;14.382;2022-12-28T17:25:49;11.93;;;1.90;;
4174;SDS011;2101;48.290;14.382;2022-12-28T17:28:15;13.93;;;2.13;;
4174;SDS011;2101;48.290;14.382;2022-12-28T17:30:42;14.40;;;2.63;;
4174;SDS011;2101;48.290;14.382;2022-12-28T17:33:08;11.90;;;1.80;;
4174;SDS011;2101;48.290;14.382;2022-12-28T17:35:35;12.43;;;2.43;;
4174;SDS011;2101;48.290;14.382;2022-12-28T17:38:01;15.70;;;2.23;;
4174;SDS011;2101;48.290;14.382;2022-12-28T17:40:27;10.20;;;1.57;;
4174;SDS011;2101;48.290;14.382;2022-12-28T17:42:54;11.20;;;1.77;;
4174;SDS011;2101;48.290;14.382;2022-12-28T17:45:20;12.00;;;2.03;;
4174;SDS011;2101;48.290;14.382;2022-12-28T17:47:46;14.80;;;2.50;;
4174;SDS011;2101;48.290;14.382;2022-12-28T17:50:12;13.50;;;2.00;;
4174;SDS011;2101;48.290;14.382;2022-12-28T17:52:38;14.00;;;2.20;;
4174;SDS011;2101;48.290;14.382;2022-12-28T17:55:05;15.87;;;3.23;;
4174;SDS011;2101;48.290;14.382;2022-12-28T17:57:32;16.80;;;2.80;;
4174;SDS011;2101;48.290;14.382;2022-12-28T17:59:58;28.20;;;4.13;;
4174;SDS011;2101;48.290;14.382;2022-12-28T18:02:25;14.57;;;2.47;;
4174;SDS011;2101;48.290;14.382;2022-12-28T18:04:52;11.97;;;2.53;;
4174;SDS011;2101;48.290;14.382;2022-12-28T18:07:18;11.03;;;1.67;;
4174;SDS011;2101;48.290;14.382;2022-12-28T18:09:44;13.90;;;1.97;;
4174;SDS011;2101;48.290;14.382;2022-12-28T18:12:10;13.07;;;2.43;;
4174;SDS011;2101;48.290;14.382;2022-12-28T18:14:36;12.30;;;2.20;;
4174;SDS011;2101;48.290;14.382;2022-12-28T18:17:02;11.53;;;1.90;;
4174;SDS011;2101;48.290;14.382;2022-12-28T18:19:28;12.03;;;1.90;;
4174;SDS011;2101;48.290;14.382;2022-12-28T18:21:54;13.70;;;1.90;;
4174;SDS011;2101;48.290;14.382;2022-12-28T18:24:20;13.10;;;1.67;;
4174;SDS011;2101;48.290;14.382;2022-12-28T18:26:47;11.50;;;1.87;;
4174;SDS011;2101;48.290;14.382;2022-12-28T18:29:13;11.57;;;2.20;;
4174;SDS011;2101;48.290;14.382;2022-12-28T18:31:39;13.27;;;2.30;;
4174;SDS011;2101;48.290;14.382;2022-12-28T18:34:05;12.20;;;2.10;;
4174;SDS011;2101;48.290;14.382;2022-12-28T18:36:31;16.30;;;2.20;;
4174;SDS011;2101;48.290;14.382;2022-12-28T18:38:58;12.23;;;2.07;;
4174;SDS011;2101;48.290;14.382;2022-12-28T18:41:24;14.57;;;2.43;;
4174;SDS011;2101;48.290;14.382;2022-12-28T18:43:50;13.30;;;2.67;;
4174;SDS011;2101;48.290;14.382;2022-12-28T18:46:16;13.80;;;3.03;;
4174;SDS011;2101;48.290;14.382;2022-12-28T18:48:42;14.60;;;2.30;;
